Time;durP1;ratioP1;P1;durP2;ratioP2;P2;SDS_P1;SDS_P2;PMS_P1;PMS_P2;Temp;Humidity;BMP_temperature;BMP_pressure;BME280_temperature;BME280_humidity;BME280_pressure;Samples;Min_cycle;Max_cycle;Signal;HPM_P1;HPM_P2
2022/04/29 00:00:51;;;;;;;0.60;0.60;;;4.70;99.90;;;;;;4949856;28;20082;-73
2022/04/29 00:03:17;;;;;;;0.50;0.50;;;4.70;99.90;;;;;;4951635;28;20045;-72
2022/04/29 00:05:44;;;;;;;0.60;0.60;;;4.70;99.90;;;;;;4952520;28;20050;-72
2022/04/29 00:08:11;;;;;;;0.60;0.60;;;4.70;99.90;;;;;;4948512;29;20043;-72
2022/04/29 00:10:38;;;;;;;0.50;0.50;;;4.60;99.90;;;;;;4958709;28;20059;-72
2022/04/29 00:13:05;;;;;;;0.70;0.70;;;4.60;99.90;;;;;;5026911;28;20115;-72
2022/04/29 00:15:31;;;;;;;0.70;0.70;;;4.60;99.90;;;;;;5012083;28;20043;-75
2022/04/29 00:17:57;;;;;;;0.65;0.65;;;4.60;99.90;;;;;;5016234;28;20435;-75
2022/04/29 00:20:23;;;;;;;0.60;0.60;;;4.60;99.90;;;;;;5013091;28;20124;-72
2022/04/29 00:22:50;;;;;;;0.70;0.70;;;4.60;99.90;;;;;;5012416;28;20073;-72
2022/04/29 00:25:16;;;;;;;0.60;0.60;;;4.60;99.90;;;;;;5028255;28;20094;-72
2022/04/29 00:27:41;;;;;;;0.57;0.57;;;4.60;99.90;;;;;;5009499;28;20056;-72
2022/04/29 00:30:10;;;;;;;0.40;0.40;;;4.60;99.90;;;;;;5003709;28;20048;-72
2022/04/29 00:32:37;;;;;;;0.50;0.50;;;4.60;99.90;;;;;;5017425;28;20443;-72
2022/04/29 00:35:03;;;;;;;0.40;0.40;;;4.60;99.90;;;;;;5046674;28;20037;-72
2022/04/29 00:37:30;;;;;;;0.50;0.50;;;4.50;99.90;;;;;;5001338;28;20052;-72
2022/04/29 00:39:56;;;;;;;0.60;0.60;;;4.50;99.90;;;;;;5038811;28;20076;-72
2022/04/29 00:42:22;;;;;;;0.60;0.60;;;4.50;99.90;;;;;;5029675;28;20141;-72
2022/04/29 00:44:48;;;;;;;0.65;0.65;;;4.50;99.90;;;;;;5002518;28;20123;-72
2022/04/29 00:47:16;;;;;;;0.60;0.60;;;4.50;99.90;;;;;;5014632;28;20048;-72
2022/04/29 00:49:42;;;;;;;0.60;0.60;;;4.40;99.90;;;;;;5046683;28;20128;-72
2022/04/29 00:52:12;;;;;;;0.70;0.70;;;4.40;99.90;;;;;;5025105;28;20051;-72
2022/04/29 00:54:40;;;;;;;0.70;0.70;;;4.30;99.90;;;;;;5023963;28;20041;-72
2022/04/29 00:57:09;;;;;;;0.70;0.70;;;4.30;99.90;;;;;;5034817;28;20045;-72
2022/04/29 00:59:45;;;;;;;0.60;0.60;;;4.30;99.90;;;;;;5012742;28;20111;-72
2022/04/29 01:02:13;;;;;;;0.60;0.60;;;4.30;99.90;;;;;;5021768;28;20438;-72
2022/04/29 01:04:59;;;;;;;0.68;0.68;;;4.30;99.90;;;;;;5042334;28;20076;-72
2022/04/29 01:07:28;;;;;;;0.60;0.60;;;4.30;99.90;;;;;;5038530;28;20044;-72
2022/04/29 01:09:53;;;;;;;0.50;0.50;;;4.20;99.90;;;;;;5024037;28;20032;-72
2022/04/29 01:12:19;;;;;;;0.60;0.60;;;4.30;99.90;;;;;;5030987;28;20450;-72
2022/04/29 01:14:45;;;;;;;0.60;0.60;;;4.30;99.90;;;;;;5023880;28;20306;-72
2022/04/29 01:17:11;;;;;;;0.73;0.73;;;4.20;99.90;;;;;;5044475;28;20060;-75
2022/04/29 01:19:39;;;;;;;1.52;1.48;;;4.20;99.90;;;;;;5019784;28;20044;-72
2022/04/29 01:22:05;;;;;;;0.70;0.70;;;4.10;99.90;;;;;;5044215;28;20411;-72
2022/04/29 01:24:31;;;;;;;1.08;1.08;;;4.20;99.90;;;;;;5040064;28;20032;-72
2022/04/29 01:26:56;;;;;;;1.10;1.10;;;4.20;99.90;;;;;;5007778;28;20037;-74
2022/04/29 01:29:23;;;;;;;0.80;0.80;;;4.20;99.90;;;;;;5029414;28;20059;-72
2022/04/29 01:31:50;;;;;;;0.80;0.80;;;4.20;99.90;;;;;;5032500;28;20045;-72
2022/04/29 01:34:16;;;;;;;0.85;0.85;;;4.20;99.90;;;;;;5040282;28;20095;-72
2022/04/29 01:36:42;;;;;;;0.80;0.80;;;4.20;99.90;;;;;;5019064;28;20033;-72
2022/04/29 01:39:07;;;;;;;0.80;0.80;;;4.30;99.90;;;;;;5033919;28;20495;-72
2022/04/29 01:41:34;;;;;;;0.70;0.70;;;4.30;99.90;;;;;;5029702;28;20047;-72
2022/04/29 01:44:00;;;;;;;0.70;0.70;;;4.30;99.90;;;;;;5030888;28;20052;-72
2022/04/29 01:46:28;;;;;;;2.28;2.17;;;4.30;99.90;;;;;;5013582;28;20123;-72
2022/04/29 01:48:54;;;;;;;0.70;0.70;;;4.30;99.90;;;;;;5042317;28;20041;-72
2022/04/29 01:51:19;;;;;;;0.80;0.80;;;4.30;99.90;;;;;;5007611;28;20111;-72
2022/04/29 01:53:45;;;;;;;0.82;0.82;;;4.30;99.90;;;;;;5024109;28;20587;-72
2022/04/29 01:56:11;;;;;;;0.80;0.80;;;4.30;99.90;;;;;;5025698;28;20041;-72
2022/04/29 01:58:37;;;;;;;0.80;0.80;;;4.30;99.90;;;;;;5023730;28;20124;-72
2022/04/29 02:01:03;;;;;;;0.50;0.50;;;4.30;99.90;;;;;;5030481;28;20411;-72
2022/04/29 02:03:28;;;;;;;1.75;1.23;;;4.30;99.90;;;;;;5022710;28;20049;-72
2022/04/29 02:05:54;;;;;;;0.60;0.60;;;4.30;99.90;;;;;;5033319;28;20465;-72
2022/04/29 02:08:20;;;;;;;0.70;0.70;;;4.30;99.90;;;;;;5019878;28;20095;-72
2022/04/29 02:10:46;;;;;;;0.80;0.80;;;4.30;99.90;;;;;;4996751;28;20400;-72
2022/04/29 02:13:13;;;;;;;1.50;1.40;;;4.30;99.90;;;;;;5007858;28;20468;-72
2022/04/29 02:15:38;;;;;;;0.80;0.80;;;4.30;99.90;;;;;;5022127;28;20049;-72
2022/04/29 02:18:04;;;;;;;0.70;0.70;;;4.30;99.90;;;;;;5017484;28;20049;-72
2022/04/29 02:20:30;;;;;;;0.70;0.70;;;4.30;99.90;;;;;;5009130;28;20042;-72
2022/04/29 02:22:57;;;;;;;0.70;0.70;;;4.30;99.90;;;;;;5022467;28;20052;-72
2022/04/29 02:25:23;;;;;;;0.88;0.88;;;4.30;99.90;;;;;;5020255;28;20091;-72
2022/04/29 02:27:48;;;;;;;0.80;0.80;;;4.30;99.90;;;;;;5021951;28;20037;-75
2022/04/29 02:30:14;;;;;;;0.60;0.60;;;4.30;99.90;;;;;;5048933;28;20052;-72
2022/04/29 02:32:41;;;;;;;0.70;0.70;;;4.30;99.90;;;;;;5025736;28;20072;-72
2022/04/29 02:35:07;;;;;;;1.10;1.10;;;4.30;99.90;;;;;;5028639;28;20037;-72
2022/04/29 02:37:33;;;;;;;0.70;0.70;;;4.30;99.90;;;;;;5025882;28;20393;-72
2022/04/29 02:39:58;;;;;;;0.82;0.82;;;4.30;99.90;;;;;;5045198;28;20076;-72
2022/04/29 02:42:24;;;;;;;0.73;0.73;;;4.30;99.90;;;;;;5020094;28;20049;-72
2022/04/29 02:44:50;;;;;;;0.80;0.80;;;4.30;99.90;;;;;;5026503;28;20045;-75
2022/04/29 02:47:16;;;;;;;0.65;0.65;;;4.30;99.90;;;;;;5022478;28;20053;-72
2022/04/29 02:49:44;;;;;;;0.80;0.80;;;4.30;99.90;;;;;;5033609;28;20045;-72
2022/04/29 02:52:11;;;;;;;0.80;0.80;;;4.30;99.90;;;;;;5041869;28;20052;-72
2022/04/29 02:54:37;;;;;;;0.55;0.55;;;4.30;99.90;;;;;;5033997;28;20123;-72
2022/04/29 02:57:04;;;;;;;0.60;0.60;;;4.30;99.90;;;;;;5021424;28;20477;-72
2022/04/29 02:59:29;;;;;;;0.60;0.60;;;4.30;99.90;;;;;;4998920;28;20077;-72
2022/04/29 03:01:55;;;;;;;0.63;0.63;;;4.30;99.90;;;;;;5043069;28;20456;-72
2022/04/29 03:04:20;;;;;;;0.60;0.60;;;4.30;99.90;;;;;;5047531;28;20484;-72
2022/04/29 03:06:46;;;;;;;0.70;0.70;;;4.20;99.90;;;;;;5011550;28;20069;-72
2022/04/29 03:09:12;;;;;;;0.60;0.60;;;4.20;99.90;;;;;;5018077;28;20131;-72
2022/04/29 03:11:38;;;;;;;0.68;0.68;;;4.20;99.90;;;;;;5030167;28;20500;-72
2022/04/29 03:14:04;;;;;;;0.70;0.70;;;4.10;99.90;;;;;;5060961;28;20471;-72
2022/04/29 03:16:30;;;;;;;0.60;0.60;;;4.10;99.90;;;;;;5024552;28;20065;-72
2022/04/29 03:18:56;;;;;;;1.38;1.27;;;4.10;99.90;;;;;;5030735;28;20079;-72
2022/04/29 03:21:22;;;;;;;0.70;0.70;;;4.10;99.90;;;;;;5040999;28;20033;-72
2022/04/29 03:23:48;;;;;;;0.60;0.60;;;4.10;99.90;;;;;;5045751;28;20077;-72
2022/04/29 03:26:14;;;;;;;0.70;0.70;;;4.10;99.90;;;;;;5046446;28;20076;-72
2022/04/29 03:28:40;;;;;;;0.70;0.70;;;4.10;99.90;;;;;;5050102;28;20116;-75
2022/04/29 03:31:05;;;;;;;0.90;0.90;;;4.10;99.90;;;;;;5013319;28;20045;-72
2022/04/29 03:33:32;;;;;;;1.30;1.20;;;4.10;99.90;;;;;;5004415;28;20033;-72
2022/04/29 03:35:57;;;;;;;0.60;0.60;;;4.10;99.90;;;;;;5008990;28;20044;-72
2022/04/29 03:38:24;;;;;;;0.90;0.90;;;4.10;99.90;;;;;;5032198;28;20492;-72
2022/04/29 03:40:50;;;;;;;0.70;0.70;;;4.10;99.90;;;;;;5016185;28;20044;-72
2022/04/29 03:43:15;;;;;;;0.90;0.90;;;4.10;99.90;;;;;;5026799;28;20050;-72
2022/04/29 03:45:41;;;;;;;0.60;0.60;;;4.10;99.90;;;;;;5009562;28;20121;-72
2022/04/29 03:48:07;;;;;;;0.70;0.70;;;4.20;99.90;;;;;;5028494;28;20044;-72
2022/04/29 03:50:33;;;;;;;0.98;0.98;;;4.20;99.90;;;;;;5027452;28;20061;-72
2022/04/29 03:53:00;;;;;;;0.95;0.95;;;4.20;99.90;;;;;;5020849;28;20053;-72
2022/04/29 03:55:33;;;;;;;0.70;0.70;;;4.20;99.90;;;;;;5014748;28;20080;-72
2022/04/29 03:58:01;;;;;;;0.75;0.75;;;4.30;99.90;;;;;;5005893;28;20068;-72
2022/04/29 04:00:31;;;;;;;0.70;0.70;;;4.30;99.90;;;;;;5013538;28;20038;-72
2022/04/29 04:03:00;;;;;;;0.70;0.70;;;4.40;99.90;;;;;;5000266;28;20041;-72
2022/04/29 04:05:26;;;;;;;0.70;0.70;;;4.40;99.90;;;;;;5014052;28;20513;-72
2022/04/29 04:07:52;;;;;;;62.22;48.83;;;4.50;99.90;;;;;;5035030;28;20037;-73
2022/04/29 04:10:17;;;;;;;0.75;0.75;;;4.50;99.90;;;;;;5028614;28;20555;-72
2022/04/29 04:12:49;;;;;;;0.60;0.60;;;4.50;99.90;;;;;;5028867;28;20571;-72
2022/04/29 04:15:16;;;;;;;0.65;0.65;;;4.60;99.90;;;;;;5007545;28;20124;-73
2022/04/29 04:17:43;;;;;;;0.70;0.70;;;4.60;99.90;;;;;;5023227;28;20041;-73
2022/04/29 04:20:11;;;;;;;0.50;0.50;;;4.60;99.90;;;;;;5044703;28;20068;-72
2022/04/29 04:22:37;;;;;;;0.90;0.90;;;4.70;99.90;;;;;;5028435;28;20047;-73
2022/04/29 04:25:10;;;;;;;0.70;0.70;;;4.70;99.90;;;;;;5021035;28;20041;-72
2022/04/29 04:27:36;;;;;;;1.10;1.10;;;4.70;99.90;;;;;;5015611;28;20457;-72
2022/04/29 04:30:03;;;;;;;0.68;0.68;;;4.80;99.90;;;;;;5024387;28;20076;-72
2022/04/29 04:32:34;;;;;;;0.60;0.60;;;4.80;99.90;;;;;;5008833;28;20419;-73
2022/04/29 04:35:00;;;;;;;0.70;0.70;;;4.90;99.90;;;;;;5010518;28;20377;-75
2022/04/29 04:37:26;;;;;;;0.70;0.70;;;4.90;99.90;;;;;;5011381;28;20136;-72
2022/04/29 04:39:53;;;;;;;0.60;0.60;;;5.00;99.90;;;;;;5028203;28;20040;-73
2022/04/29 04:42:19;;;;;;;0.70;0.70;;;5.10;99.90;;;;;;5028471;28;20107;-75
2022/04/29 04:44:49;;;;;;;0.82;0.82;;;5.10;99.90;;;;;;5037828;28;20496;-75
2022/04/29 04:47:15;;;;;;;0.75;0.75;;;5.20;99.90;;;;;;5018916;28;20509;-75
2022/04/29 04:49:41;;;;;;;0.70;0.70;;;5.30;99.90;;;;;;5024688;28;20171;-73
2022/04/29 04:52:08;;;;;;;0.85;0.85;;;5.40;99.90;;;;;;5047770;28;20521;-73
2022/04/29 04:54:34;;;;;;;0.73;0.73;;;5.50;99.90;;;;;;5024695;28;20080;-72
2022/04/29 04:57:00;;;;;;;0.70;0.70;;;5.60;99.90;;;;;;5029564;28;20396;-73
2022/04/29 04:59:26;;;;;;;0.70;0.70;;;5.80;99.90;;;;;;5005654;28;20056;-73
2022/04/29 05:01:53;;;;;;;0.68;0.68;;;5.90;99.90;;;;;;5027778;28;20513;-73
2022/04/29 05:04:19;;;;;;;0.60;0.60;;;6.10;99.90;;;;;;5045588;28;20052;-73
2022/04/29 05:06:45;;;;;;;0.60;0.60;;;6.20;99.90;;;;;;5014100;28;20047;-73
2022/04/29 05:09:11;;;;;;;0.60;0.60;;;6.30;99.90;;;;;;5034168;28;20049;-75
2022/04/29 05:11:36;;;;;;;0.70;0.70;;;6.40;99.90;;;;;;5042058;28;20041;-73
2022/04/29 05:14:02;;;;;;;0.50;0.50;;;6.50;99.90;;;;;;5002978;28;20048;-73
2022/04/29 05:16:27;;;;;;;0.68;0.68;;;6.60;99.90;;;;;;5022772;28;20111;-73
2022/04/29 05:18:53;;;;;;;0.50;0.50;;;6.70;99.90;;;;;;5007227;28;20037;-73
2022/04/29 05:21:19;;;;;;;0.60;0.60;;;6.80;99.90;;;;;;4998358;28;20045;-73
2022/04/29 05:23:45;;;;;;;0.50;0.50;;;6.90;99.90;;;;;;5001929;28;20076;-73
2022/04/29 05:26:11;;;;;;;0.60;0.60;;;7.00;99.90;;;;;;4999739;28;20068;-73
2022/04/29 05:28:36;;;;;;;22.25;2.58;;;7.00;99.90;;;;;;5028085;28;20045;-73
2022/04/29 05:31:03;;;;;;;0.50;0.50;;;7.10;99.90;;;;;;5013358;28;20064;-73
2022/04/29 05:33:31;;;;;;;0.60;0.60;;;7.20;99.90;;;;;;5011843;28;20041;-73
2022/04/29 05:35:58;;;;;;;0.60;0.60;;;7.20;99.90;;;;;;5014032;28;20068;-73
2022/04/29 05:38:23;;;;;;;0.60;0.60;;;7.30;99.90;;;;;;5030751;28;20041;-73
2022/04/29 05:43:33;;;;;;;0.52;0.52;;;7.40;99.90;;;;;;5030139;28;20044;-73
2022/04/29 05:45:59;;;;;;;0.50;0.50;;;7.40;99.90;;;;;;5028728;28;20462;-73
2022/04/29 05:48:24;;;;;;;0.50;0.50;;;7.50;99.90;;;;;;5008433;28;20050;-73
2022/04/29 05:50:50;;;;;;;0.47;0.47;;;7.50;99.90;;;;;;4990425;28;20081;-73
2022/04/29 05:53:16;;;;;;;0.40;0.40;;;7.60;99.90;;;;;;5026462;28;20041;-73
2022/04/29 05:55:44;;;;;;;0.47;0.47;;;7.60;99.90;;;;;;5019283;28;20540;-73
2022/04/29 05:58:10;;;;;;;0.60;0.60;;;7.70;99.90;;;;;;5030538;28;20037;-73
2022/04/29 06:00:35;;;;;;;3.33;2.10;;;7.80;99.90;;;;;;5008803;28;20044;-73
2022/04/29 06:03:03;;;;;;;2.00;1.05;;;7.90;99.90;;;;;;4993893;28;20071;-73
2022/04/29 06:05:29;;;;;;;0.65;0.65;;;8.00;99.90;;;;;;5026125;28;20041;-73
2022/04/29 06:07:57;;;;;;;0.40;0.40;;;8.00;99.90;;;;;;5012288;28;20048;-73
2022/04/29 06:10:25;;;;;;;0.40;0.40;;;8.10;99.90;;;;;;5027735;28;20045;-73
2022/04/29 06:12:51;;;;;;;1.70;1.60;;;8.20;99.90;;;;;;5011168;28;20056;-73
2022/04/29 06:15:17;;;;;;;0.50;0.50;;;8.30;99.90;;;;;;5022967;28;20041;-73
2022/04/29 06:17:43;;;;;;;0.43;0.43;;;8.40;99.90;;;;;;5023298;28;20044;-73
2022/04/29 06:20:10;;;;;;;1.05;1.05;;;8.50;99.90;;;;;;5012987;28;20045;-73
2022/04/29 06:22:46;;;;;;;5.05;1.85;;;8.60;99.90;;;;;;5010409;28;20049;-73
2022/04/29 06:25:11;;;;;;;1.02;1.00;;;8.60;99.90;;;;;;5046776;28;20075;-73
2022/04/29 06:27:37;;;;;;;0.30;0.30;;;8.60;99.90;;;;;;5006602;28;20517;-73
2022/04/29 06:30:04;;;;;;;0.90;0.90;;;8.70;99.90;;;;;;5009445;28;20734;-73
2022/04/29 06:32:29;;;;;;;4.03;2.13;;;8.80;99.90;;;;;;5013481;28;20041;-73
2022/04/29 06:34:55;;;;;;;0.73;0.73;;;8.90;99.90;;;;;;5001033;28;20045;-73
2022/04/29 06:37:21;;;;;;;0.50;0.50;;;9.00;99.90;;;;;;5024430;28;20041;-73
2022/04/29 06:39:47;;;;;;;0.30;0.30;;;9.10;99.90;;;;;;5009838;28;20049;-73
2022/04/29 06:42:13;;;;;;;0.30;0.30;;;9.20;99.90;;;;;;5049745;28;20050;-73
2022/04/29 06:44:38;;;;;;;0.68;0.68;;;9.40;99.90;;;;;;5009552;28;20404;-73
2022/04/29 06:47:04;;;;;;;10.52;0.95;;;9.60;99.90;;;;;;5021253;28;20052;-72
2022/04/29 06:49:30;;;;;;;12.60;1.13;;;9.60;99.90;;;;;;5022514;28;20046;-73
2022/04/29 06:51:55;;;;;;;0.47;0.47;;;9.60;99.90;;;;;;4998380;28;20053;-73
2022/04/29 06:54:21;;;;;;;0.30;0.30;;;9.60;99.90;;;;;;5017647;28;20076;-73
2022/04/29 06:56:46;;;;;;;8.18;1.90;;;9.70;99.90;;;;;;5017733;28;20041;-73
2022/04/29 06:59:12;;;;;;;0.73;0.73;;;9.60;99.90;;;;;;5033914;28;20041;-73
2022/04/29 07:01:38;;;;;;;0.43;0.43;;;9.50;99.90;;;;;;5034636;28;20037;-73
2022/04/29 07:04:04;;;;;;;0.55;0.55;;;9.40;99.90;;;;;;5033280;28;20045;-73
2022/04/29 07:06:31;;;;;;;0.30;0.30;;;9.40;99.90;;;;;;5030549;28;20041;-73
2022/04/29 07:08:57;;;;;;;0.93;0.93;;;9.30;99.90;;;;;;5032575;28;20042;-73
2022/04/29 07:11:25;;;;;;;0.30;0.30;;;9.40;99.90;;;;;;5010318;28;20046;-73
2022/04/29 07:13:52;;;;;;;0.65;0.65;;;9.40;99.90;;;;;;5011583;28;20048;-73
2022/04/29 07:16:18;;;;;;;0.40;0.40;;;9.60;99.90;;;;;;5016915;28;20044;-73
2022/04/29 07:18:44;;;;;;;6.03;1.60;;;9.70;99.90;;;;;;5013902;28;20610;-72
2022/04/29 07:21:10;;;;;;;0.52;0.52;;;9.90;99.90;;;;;;5033354;28;20048;-73
2022/04/29 07:23:35;;;;;;;6.03;2.05;;;9.90;99.90;;;;;;5005038;28;20050;-73
2022/04/29 07:26:01;;;;;;;0.40;0.40;;;9.90;99.90;;;;;;4980402;28;20397;-73
2022/04/29 07:28:27;;;;;;;0.82;0.68;;;10.00;99.90;;;;;;5015124;28;20066;-73
2022/04/29 07:30:53;;;;;;;0.30;0.30;;;10.00;99.90;;;;;;5049541;28;20055;-73
2022/04/29 07:33:19;;;;;;;0.63;0.63;;;10.00;99.90;;;;;;5018811;28;20041;-73
2022/04/29 07:43:58;;;;;;;0.63;0.63;;;10.30;99.90;;;;;;5035667;28;20045;-73
2022/04/29 07:46:24;;;;;;;0.57;0.52;;;10.50;99.90;;;;;;5010155;28;20095;-74
2022/04/29 07:48:49;;;;;;;0.95;0.63;;;10.60;99.90;;;;;;5012356;28;20049;-73
2022/04/29 07:51:15;;;;;;;2.63;1.25;;;10.80;99.90;;;;;;5049511;28;20091;-73
2022/04/29 07:53:41;;;;;;;0.30;0.30;;;10.90;99.90;;;;;;5016560;28;20090;-73
2022/04/29 07:56:06;;;;;;;0.52;0.52;;;10.90;99.90;;;;;;5050140;28;20041;-73
2022/04/29 07:58:34;;;;;;;1.00;0.95;;;10.90;99.90;;;;;;5024355;28;20069;-73
2022/04/29 08:01:00;;;;;;;1.50;1.38;;;10.90;99.90;;;;;;5013385;28;20436;-73
2022/04/29 08:03:26;;;;;;;0.38;0.38;;;10.90;99.90;;;;;;5042409;28;20163;-73
2022/04/29 08:05:52;;;;;;;0.68;0.68;;;10.80;99.90;;;;;;4991513;28;20041;-74
2022/04/29 08:08:19;;;;;;;2.20;1.60;;;10.80;99.90;;;;;;5043367;28;20493;-73
2022/04/29 08:10:45;;;;;;;1.33;0.90;;;10.80;99.90;;;;;;5026906;28;20068;-73
2022/04/29 08:13:11;;;;;;;1.17;1.10;;;10.80;99.90;;;;;;5024948;28;20065;-73
2022/04/29 08:15:37;;;;;;;8.95;1.45;;;10.80;99.90;;;;;;5009699;28;20037;-73
2022/04/29 08:18:04;;;;;;;1.95;0.75;;;10.80;99.90;;;;;;5028787;28;20535;-73
2022/04/29 08:20:30;;;;;;;0.55;0.55;;;10.90;99.90;;;;;;4994362;28;20041;-73
2022/04/29 08:22:56;;;;;;;0.10;0.10;;;11.00;99.90;;;;;;5020424;28;20048;-73
2022/04/29 08:25:22;;;;;;;1.67;0.60;;;11.20;99.90;;;;;;5001242;28;20047;-72
2022/04/29 08:27:50;;;;;;;0.25;0.25;;;11.40;99.90;;;;;;5021120;28;20037;-74
2022/04/29 08:30:15;;;;;;;0.20;0.20;;;11.40;99.90;;;;;;5011260;28;20048;-73
2022/04/29 08:32:46;;;;;;;0.38;0.38;;;11.50;99.90;;;;;;4996232;28;20064;-73
2022/04/29 08:35:13;;;;;;;0.60;0.60;;;11.50;99.90;;;;;;5005852;28;20045;-73
2022/04/29 08:37:40;;;;;;;2.72;1.13;;;11.50;99.90;;;;;;5033203;28;20049;-73
2022/04/29 08:40:07;;;;;;;1.02;0.95;;;11.50;99.90;;;;;;4997021;28;20045;-73
2022/04/29 08:42:38;;;;;;;0.40;0.40;;;11.50;99.90;;;;;;5020120;28;20049;-73
2022/04/29 08:45:12;;;;;;;0.55;0.55;;;11.40;99.90;;;;;;5015322;28;20128;-73
2022/04/29 08:47:44;;;;;;;1.17;1.08;;;11.40;99.90;;;;;;5031041;28;20929;-74
2022/04/29 08:50:19;;;;;;;0.20;0.20;;;11.40;99.90;;;;;;5017954;28;20506;-73
2022/04/29 08:52:45;;;;;;;0.73;0.70;;;11.30;99.90;;;;;;5037310;28;21479;-73
2022/04/29 09:00:41;;;;;;;1.73;1.27;;;11.50;99.90;;;;;;5020714;28;20048;-73
2022/04/29 09:03:16;;;;;;;0.25;0.25;;;11.70;99.90;;;;;;5021947;28;20052;-73
2022/04/29 09:05:42;;;;;;;0.43;0.40;;;11.80;99.90;;;;;;5002765;28;20080;-73
2022/04/29 09:08:12;;;;;;;1.27;1.17;;;12.00;99.90;;;;;;5020117;28;20135;-73
2022/04/29 09:10:57;;;;;;;0.65;0.65;;;12.00;99.90;;;;;;5019010;28;20088;-73
2022/04/29 09:13:25;;;;;;;1.02;1.00;;;11.90;99.90;;;;;;5004306;28;20036;-73
2022/04/29 09:16:01;;;;;;;0.80;0.80;;;11.80;99.90;;;;;;5022511;28;20118;-73
2022/04/29 09:18:48;;;;;;;2.45;1.23;;;11.70;99.90;;;;;;5005838;28;20771;-73
2022/04/29 09:21:28;;;;;;;2.53;1.63;;;11.50;99.90;;;;;;5037621;28;20057;-74
2022/04/29 09:24:06;;;;;;;0.50;0.50;;;11.30;99.90;;;;;;5021416;28;20128;-73
2022/04/29 09:26:37;;;;;;;1.10;0.85;;;11.20;99.90;;;;;;5012604;28;20045;-73
2022/04/29 09:29:17;;;;;;;0.50;0.50;;;11.00;99.90;;;;;;5011553;28;20755;-72
2022/04/29 09:31:55;;;;;;;0.50;0.50;;;11.00;99.90;;;;;;5022483;28;20041;-73
2022/04/29 09:34:22;;;;;;;0.15;0.15;;;11.00;99.90;;;;;;5020566;28;20041;-73
2022/04/29 09:36:48;;;;;;;0.10;0.10;;;11.00;99.90;;;;;;5009458;28;20041;-73
2022/04/29 09:39:32;;;;;;;0.30;0.30;;;11.00;99.90;;;;;;5003900;28;20352;-73
2022/04/29 09:41:59;;;;;;;0.75;0.75;;;11.10;99.90;;;;;;5021442;28;20052;-72
2022/04/29 09:44:26;;;;;;;0.10;0.10;;;11.20;99.90;;;;;;5013982;28;20169;-73
2022/04/29 09:46:52;;;;;;;4.30;0.82;;;11.10;99.90;;;;;;5024494;28;20098;-73
2022/04/29 09:49:19;;;;;;;0.65;0.65;;;11.10;99.90;;;;;;5005505;28;20508;-73
2022/04/29 09:51:52;;;;;;;1.85;1.30;;;11.10;99.90;;;;;;5000808;28;20404;-73
2022/04/29 09:54:19;;;;;;;3.95;0.50;;;11.10;99.90;;;;;;5022922;28;20378;-73
2022/04/29 09:57:06;;;;;;;0.50;0.50;;;11.10;99.90;;;;;;5011811;28;20048;-73
2022/04/29 09:59:36;;;;;;;0.30;0.30;;;11.10;99.90;;;;;;5013678;28;20037;-73
2022/04/29 10:02:04;;;;;;;1.13;1.05;;;11.20;99.90;;;;;;5006948;28;20128;-73
2022/04/29 10:04:32;;;;;;;0.85;0.82;;;11.10;99.90;;;;;;4997538;28;20147;-73
2022/04/29 10:06:59;;;;;;;1.90;1.45;;;11.10;99.90;;;;;;5014712;28;20048;-73
2022/04/29 10:09:30;;;;;;;0.90;0.88;;;11.20;99.90;;;;;;5016756;28;20045;-73
2022/04/29 10:11:59;;;;;;;1.58;1.48;;;11.20;99.90;;;;;;4999614;28;20044;-73
2022/04/29 10:14:28;;;;;;;0.47;0.47;;;11.30;99.90;;;;;;5017421;28;20392;-73
2022/04/29 10:22:37;;;;;;;1.58;1.00;;;11.20;99.90;;;;;;5030479;28;20438;-73
2022/04/29 10:25:11;;;;;;;0.40;0.40;;;11.30;99.90;;;;;;5010668;28;20277;-73
2022/04/29 10:27:40;;;;;;;30.98;2.10;;;11.40;99.90;;;;;;5011141;28;20127;-73
2022/04/29 10:30:07;;;;;;;1.02;1.00;;;11.40;99.90;;;;;;5008730;28;20053;-73
2022/04/29 10:33:03;;;;;;;0.20;0.20;;;11.40;99.90;;;;;;5033321;28;20044;-73
2022/04/29 10:35:50;;;;;;;1.35;0.90;;;11.40;99.90;;;;;;5023604;28;20116;-73
2022/04/29 10:38:23;;;;;;;0.63;0.63;;;11.40;99.90;;;;;;5026231;28;20033;-73
2022/04/29 10:41:21;;;;;;;1.30;1.20;;;11.40;99.90;;;;;;5039430;28;20124;-73
2022/04/29 10:43:50;;;;;;;1.35;1.23;;;11.40;99.90;;;;;;5038719;28;20705;-73
2022/04/29 10:46:24;;;;;;;1.15;0.75;;;11.30;99.90;;;;;;4997081;28;20056;-73
2022/04/29 10:48:52;;;;;;;3.85;1.05;;;11.20;99.90;;;;;;5001203;28;20046;-73
2022/04/29 10:51:27;;;;;;;1.10;1.05;;;11.20;99.90;;;;;;5028531;28;20064;-73
2022/04/29 10:53:57;;;;;;;1.10;1.08;;;11.30;99.90;;;;;;4990477;28;20046;-73
2022/04/29 10:56:31;;;;;;;0.50;0.50;;;11.40;99.90;;;;;;4986794;28;20480;-73
2022/04/29 10:59:03;;;;;;;1.02;1.02;;;11.40;99.90;;;;;;5017042;28;20383;-73
2022/04/29 11:01:34;;;;;;;0.93;0.90;;;11.50;99.90;;;;;;4998784;28;20100;-73
2022/04/29 11:04:01;;;;;;;24.98;1.10;;;11.50;99.90;;;;;;5020339;28;20053;-73
2022/04/29 11:06:46;;;;;;;1.80;1.30;;;11.60;99.90;;;;;;4990019;28;20220;-73
2022/04/29 11:09:30;;;;;;;6.40;1.00;;;11.60;99.90;;;;;;4998992;28;20055;-73
2022/04/29 11:11:56;;;;;;;0.40;0.40;;;11.50;99.90;;;;;;5042769;28;20045;-73
2022/04/29 11:14:22;;;;;;;1.90;1.55;;;11.50;99.90;;;;;;4989772;28;20080;-73
2022/04/29 11:16:52;;;;;;;0.55;0.55;;;11.60;99.90;;;;;;4990274;28;20112;-73
2022/04/29 11:19:28;;;;;;;1.48;0.95;;;11.70;99.90;;;;;;5016503;28;20045;-73
2022/04/29 11:24:47;;;;;;;0.50;0.50;;;11.90;99.90;;;;;;5028453;28;20349;-73
2022/04/29 11:27:13;;;;;;;3.00;1.17;;;12.00;99.80;;;;;;5030033;28;20049;-73
2022/04/29 11:29:46;;;;;;;0.70;0.70;;;12.00;99.70;;;;;;5029265;28;20082;-74
2022/04/29 11:32:12;;;;;;;0.28;0.28;;;11.90;98.70;;;;;;5011904;28;20029;-74
2022/04/29 11:34:54;;;;;;;2.50;1.40;;;11.90;99.30;;;;;;5000358;28;20049;-73
2022/04/29 11:37:28;;;;;;;1.98;1.15;;;11.90;99.10;;;;;;4999326;28;20041;-73
2022/04/29 11:40:05;;;;;;;2.47;0.95;;;12.00;98.90;;;;;;5016698;28;20522;-73
2022/04/29 11:42:31;;;;;;;0.65;0.65;;;12.10;98.80;;;;;;5028988;28;20671;-73
2022/04/29 11:45:08;;;;;;;1.25;1.15;;;12.00;98.40;;;;;;5030140;28;20049;-73
2022/04/29 11:47:36;;;;;;;1.40;1.25;;;12.00;98.30;;;;;;5025457;28;20041;-72
2022/04/29 11:50:03;;;;;;;3.85;1.75;;;12.10;98.50;;;;;;5015416;28;20056;-73
2022/04/29 11:52:31;;;;;;;0.80;0.80;;;12.10;97.10;;;;;;5049436;28;20048;-73
2022/04/29 11:55:02;;;;;;;0.30;0.30;;;12.10;98.20;;;;;;5033161;28;20076;-73
2022/04/29 11:57:33;;;;;;;4.10;1.60;;;12.10;97.90;;;;;;4996921;28;20048;-73
2022/04/29 12:00:00;;;;;;;0.47;0.47;;;12.00;97.70;;;;;;4997073;28;20400;-72
2022/04/29 12:02:27;;;;;;;0.52;0.40;;;11.90;98.30;;;;;;5006842;28;20056;-73
2022/04/29 12:05:03;;;;;;;0.17;0.17;;;11.80;98.60;;;;;;5012636;28;20050;-73
2022/04/29 12:07:37;;;;;;;0.68;0.68;;;11.80;98.90;;;;;;5012436;28;20069;-74
2022/04/29 12:10:18;;;;;;;0.90;0.88;;;11.80;98.90;;;;;;5011804;28;20053;-74
2022/04/29 12:12:47;;;;;;;7.57;1.48;;;11.90;99.60;;;;;;5012869;28;20136;-73
2022/04/29 12:15:16;;;;;;;0.38;0.38;;;12.00;98.00;;;;;;4992583;28;20038;-73
2022/04/29 12:17:42;;;;;;;0.10;0.10;;;11.80;98.20;;;;;;4993330;28;20041;-73
2022/04/29 12:20:14;;;;;;;0.73;0.68;;;11.70;98.30;;;;;;5015150;28;20124;-73
2022/04/29 12:22:40;;;;;;;0.20;0.20;;;11.70;98.30;;;;;;5002843;28;20045;-73
2022/04/29 12:25:29;;;;;;;2.05;0.95;;;11.70;98.00;;;;;;4992985;28;20057;-73
2022/04/29 12:28:28;;;;;;;1.92;1.13;;;11.70;97.90;;;;;;4978118;28;20042;-73
2022/04/29 12:36:54;;;;;;;1.15;1.05;;;11.70;97.40;;;;;;4953156;28;20592;-73
2022/04/29 12:39:27;;;;;;;0.20;0.20;;;11.80;98.20;;;;;;4953546;28;20043;-73
2022/04/29 12:42:06;;;;;;;1.00;1.00;;;12.00;98.30;;;;;;4952611;28;20065;-73
2022/04/29 12:47:44;;;;;;;1.52;1.42;;;12.40;98.30;;;;;;4933314;29;20467;-73
2022/04/29 12:50:29;;;;;;;1.98;1.88;;;12.40;96.40;;;;;;4941906;28;20094;-73
2022/04/29 12:53:12;;;;;;;2.03;1.83;;;12.40;96.90;;;;;;4954387;28;20533;-73
2022/04/29 12:55:46;;;;;;;4.97;0.52;;;12.40;96.70;;;;;;4971760;28;20046;-74
2022/04/29 12:58:15;;;;;;;0.40;0.40;;;12.40;96.30;;;;;;4971754;28;20540;-73
2022/04/29 13:00:57;;;;;;;1.08;0.88;;;12.20;95.80;;;;;;4971254;28;20072;-73
2022/04/29 13:03:23;;;;;;;2.75;1.40;;;12.20;96.90;;;;;;4987094;28;20042;-73
2022/04/29 13:05:49;;;;;;;3.92;1.20;;;12.20;97.30;;;;;;4987607;28;20050;-73
2022/04/29 13:08:15;;;;;;;1.77;1.25;;;12.20;97.00;;;;;;4995995;28;20522;-73
2022/04/29 13:10:43;;;;;;;1.40;1.30;;;12.20;96.80;;;;;;5012909;28;20409;-72
2022/04/29 13:13:08;;;;;;;0.82;0.82;;;12.10;96.90;;;;;;5048681;28;20041;-72
2022/04/29 13:15:34;;;;;;;0.65;0.32;;;12.00;97.00;;;;;;5014682;28;20047;-73
2022/04/29 13:18:00;;;;;;;0.30;0.30;;;11.90;96.90;;;;;;5014536;28;20040;-74
2022/04/29 13:20:26;;;;;;;8.65;2.60;;;11.90;97.60;;;;;;5030831;28;20080;-73
2022/04/29 13:22:55;;;;;;;1.90;1.67;;;11.90;97.50;;;;;;5009881;28;20033;-73
2022/04/29 13:25:21;;;;;;;0.52;0.52;;;11.90;97.00;;;;;;4995626;28;20371;-73
2022/04/29 13:27:46;;;;;;;0.40;0.40;;;12.00;97.40;;;;;;5014403;28;20047;-73
2022/04/29 13:30:12;;;;;;;0.70;0.70;;;12.10;97.40;;;;;;5014115;28;20041;-73
2022/04/29 13:32:38;;;;;;;6.20;1.50;;;12.30;97.80;;;;;;5023598;28;20029;-72